Time,TemperatureF,DewpointF,PressureIn,WindDirection,WindDirectionDegrees,WindSpeedMPH,WindSpeedGustMPH,Humidity,HourlyPrecipIn,Conditions,Clouds,dailyrainin,SoftwareType,DateUTC
2013-08-06 00:01:00,76.8,74.6,29.96,West,281,2.0,3.0,93,0.01,,SKC,0.00,VWS V14.01,2013-08-06 04:01:00,
2013-08-06 00:06:00,76.8,74.6,29.97,West,281,0.0,1.0,93,0.01,,SKC,0.00,VWS V14.01,2013-08-06 04:06:00,
2013-08-06 00:11:00,76.9,74.7,29.97,West,281,0.0,1.0,93,0.01,,SKC,0.00,VWS V14.01,2013-08-06 04:11:00,
2013-08-06 00:16:00,76.9,74.7,29.97,West,281,0.0,1.0,93,0.01,,SKC,0.00,VWS V14.01,2013-08-06 04:16:00,
2013-08-06 00:21:00,76.8,74.6,29.96,West,281,0.0,0.0,93,0.01,,SKC,0.00,VWS V14.01,2013-08-06 04:21:00,
2013-08-06 00:26:00,76.8,74.6,29.96,West,281,0.0,0.0,93,0.00,,SKC,0.00,VWS V14.01,2013-08-06 04:26:00,
2013-08-06 00:31:00,76.9,75.1,29.96,West,281,2.0,2.0,94,0.00,,SKC,0.00,VWS V14.01,2013-08-06 04:31:00,
2013-08-06 00:36:00,76.9,74.7,29.96,West,281,1.0,2.0,93,0.00,,SKC,0.00,VWS V14.01,2013-08-06 04:36:00,
2013-08-06 00:41:00,76.8,74.6,29.96,West,281,0.0,2.0,93,0.00,,SKC,0.00,VWS V14.01,2013-08-06 04:41:00,
2013-08-06 00:45:00,76.8,74.6,29.95,West,281,1.0,2.0,93,0.00,,SKC,0.00,VWS V14.01,2013-08-06 04:45:00,
2013-08-06 00:50:00,76.8,74.9,29.95,West,281,2.0,2.0,94,0.00,,SKC,0.00,VWS V14.01,2013-08-06 04:50:00,
2013-08-06 00:55:00,76.9,75.1,29.95,West,281,2.0,2.0,94,0.00,,SKC,0.00,VWS V14.01,2013-08-06 04:55:00,
2013-08-06 01:00:00,77.0,75.1,29.95,West,281,0.0,2.0,94,0.00,,SKC,0.00,VWS V14.01,2013-08-06 05:00:00,
2013-08-06 01:05:00,77.2,75.3,29.94,West,281,0.0,1.0,94,0.00,,SKC,0.00,VWS V14.01,2013-08-06 05:05:00,
2013-08-06 01:10:00,77.1,74.9,29.94,West,281,0.0,1.0,93,0.00,,SKC,0.00,VWS V14.01,2013-08-06 05:10:00,
2013-08-06 01:15:00,77.2,75.3,29.94,West,281,0.0,1.0,94,0.00,,SKC,0.00,VWS V14.01,2013-08-06 05:15:00,
2013-08-06 01:20:00,77.2,75.0,29.94,West,281,1.0,1.0,93,0.00,,SKC,0.00,VWS V14.01,2013-08-06 05:20:00,
2013-08-06 01:25:00,77.1,74.9,29.93,West,281,0.0,1.0,93,0.00,,SKC,0.00,VWS V14.01,2013-08-06 05:25:00,
2013-08-06 01:30:00,77.1,74.9,29.93,West,281,0.0,1.0,93,0.00,,SKC,0.00,VWS V14.01,2013-08-06 05:30:00,
2013-08-06 01:35:00,77.0,74.8,29.93,West,281,1.0,1.0,93,0.00,,SKC,0.00,VWS V14.01,2013-08-06 05:35:00,
2013-08-06 01:40:00,77.0,74.8,29.93,West,281,4.0,4.0,93,0.00,,SKC,0.00,VWS V14.01,2013-08-06 05:40:00,
2013-08-06 01:45:00,76.7,74.5,29.93,West,281,4.0,5.0,93,0.00,,SKC,0.00,VWS V14.01,2013-08-06 05:45:00,
2013-08-06 01:50:00,76.7,74.5,29.92,West,281,4.0,6.0,93,0.00,,SKC,0.00,VWS V14.01,2013-08-06 05:50:00,
2013-08-06 01:55:00,76.7,74.5,29.92,West,281,3.0,5.0,93,0.00,,SKC,0.00,VWS V14.01,2013-08-06 05:55:00,
2013-08-06 02:00:00,76.7,74.5,29.92,West,281,4.0,5.0,93,0.00,,SKC,0.00,VWS V14.01,2013-08-06 06:00:00,
2013-08-06 02:05:00,76.7,74.5,29.92,West,281,2.0,6.0,93,0.00,,SKC,0.00,VWS V14.01,2013-08-06 06:05:00,
2013-08-06 02:10:00,76.7,74.5,29.92,WNW,289,5.0,7.0,93,0.00,,SKC,0.00,VWS V14.01,2013-08-06 06:10:00,
2013-08-06 02:15:00,76.8,74.6,29.91,WNW,288,6.0,8.0,93,0.00,,SKC,0.00,VWS V14.01,2013-08-06 06:15:00,
2013-08-06 02:20:00,76.9,74.7,29.91,WNW,296,3.0,7.0,93,0.00,,SKC,0.00,VWS V14.01,2013-08-06 06:20:00,
2013-08-06 02:25:00,76.7,74.5,29.91,WNW,300,4.0,7.0,93,0.00,,SKC,0.00,VWS V14.01,2013-08-06 06:25:00,
2013-08-06 02:30:00,76.5,74.3,29.91,NW,304,5.0,7.0,93,0.00,,SKC,0.00,VWS V14.01,2013-08-06 06:30:00,
2013-08-06 02:35:00,76.6,74.4,29.90,NW,304,4.0,6.0,93,0.00,,SKC,0.00,VWS V14.01,2013-08-06 06:35:00,
2013-08-06 02:40:00,76.7,74.5,29.90,NW,304,1.0,6.0,93,0.00,,SKC,0.00,VWS V14.01,2013-08-06 06:40:00,
2013-08-06 02:45:00,76.8,74.9,29.90,NW,304,4.0,6.0,94,0.00,,SKC,0.00,VWS V14.01,2013-08-06 06:45:00,
2013-08-06 02:50:00,76.7,74.8,29.90,NW,304,5.0,5.0,94,0.00,,SKC,0.00,VWS V14.01,2013-08-06 06:50:00,
2013-08-06 02:55:00,76.5,74.7,29.90,NW,304,1.0,6.0,94,0.00,,SKC,0.00,VWS V14.01,2013-08-06 06:55:00,
2013-08-06 03:00:00,76.4,74.6,29.90,NW,304,3.0,5.0,94,0.00,,SKC,0.00,VWS V14.01,2013-08-06 07:00:00,
2013-08-06 03:05:00,76.5,74.7,29.90,NW,304,1.0,6.0,94,0.00,,SKC,0.00,VWS V14.01,2013-08-06 07:05:00,
2013-08-06 03:10:00,76.4,74.6,29.90,NW,304,0.0,1.0,94,0.00,,SKC,0.00,VWS V14.01,2013-08-06 07:10:00,
2013-08-06 03:15:00,76.4,74.6,29.89,NW,304,1.0,2.0,94,0.00,,SKC,0.00,VWS V14.01,2013-08-06 07:15:00,
2013-08-06 03:20:00,76.3,74.4,29.89,NW,304,2.0,4.0,94,0.00,,SKC,0.00,VWS V14.01,2013-08-06 07:20:00,
2013-08-06 03:25:00,76.3,74.4,29.89,NW,304,0.0,2.0,94,0.00,,SKC,0.00,VWS V14.01,2013-08-06 07:25:00,
2013-08-06 03:30:00,76.2,74.3,29.89,NW,304,0.0,1.0,94,0.00,,SKC,0.00,VWS V14.01,2013-08-06 07:30:00,
2013-08-06 03:35:00,76.2,74.3,29.89,NW,304,0.0,0.0,94,0.00,,SKC,0.00,VWS V14.01,2013-08-06 07:35:00,
2013-08-06 03:40:00,76.2,74.3,29.89,NW,304,0.0,0.0,94,0.00,,SKC,0.00,VWS V14.01,2013-08-06 07:40:00,
2013-08-06 03:45:00,76.2,74.3,29.89,NW,304,0.0,1.0,94,0.00,,SKC,0.00,VWS V14.01,2013-08-06 07:45:00,
2013-08-06 03:50:00,76.1,74.2,29.89,NW,304,0.0,1.0,94,0.00,,SKC,0.00,VWS V14.01,2013-08-06 07:50:00,
2013-08-06 03:55:00,76.0,74.2,29.89,NW,304,2.0,3.0,94,0.00,,SKC,0.00,VWS V14.01,2013-08-06 07:55:00,
2013-08-06 04:00:00,76.0,74.5,29.89,NW,304,3.0,3.0,95,0.00,,SKC,0.00,VWS V14.01,2013-08-06 08:00:00,
2013-08-06 04:05:00,76.0,74.5,29.89,NW,304,2.0,3.0,95,0.00,,SKC,0.00,VWS V14.01,2013-08-06 08:05:00,
2013-08-06 04:10:00,75.8,74.3,29.89,NW,304,1.0,4.0,95,0.00,,SKC,0.00,VWS V14.01,2013-08-06 08:10:00,
2013-08-06 04:15:00,75.8,74.3,29.89,NW,304,0.0,2.0,95,0.00,,SKC,0.00,VWS V14.01,2013-08-06 08:15:00,
2013-08-06 04:20:00,75.8,74.3,29.89,NW,304,0.0,1.0,95,0.00,,SKC,0.00,VWS V14.01,2013-08-06 08:20:00,
2013-08-06 04:25:00,75.8,74.3,29.89,NW,304,0.0,0.0,95,0.00,,SKC,0.00,VWS V14.01,2013-08-06 08:25:00,
2013-08-06 04:30:00,75.8,74.3,29.89,NW,304,0.0,2.0,95,0.00,,SKC,0.00,VWS V14.01,2013-08-06 08:30:00,
2013-08-06 04:35:00,75.6,74.1,29.89,NW,304,1.0,2.0,95,0.00,,SKC,0.00,VWS V14.01,2013-08-06 08:35:00,
2013-08-06 04:40:00,75.7,74.2,29.90,NW,304,0.0,1.0,95,0.00,,SKC,0.00,VWS V14.01,2013-08-06 08:40:00,
2013-08-06 04:45:00,75.6,74.1,29.90,NW,304,0.0,0.0,95,0.00,,SKC,0.00,VWS V14.01,2013-08-06 08:45:00,
2013-08-06 04:50:00,75.6,74.1,29.90,NW,304,1.0,2.0,95,0.00,,SKC,0.00,VWS V14.01,2013-08-06 08:50:00,
2013-08-06 04:55:00,75.7,74.2,29.90,NW,304,2.0,3.0,95,0.00,,SKC,0.00,VWS V14.01,2013-08-06 08:55:00,
2013-08-06 05:00:00,75.6,74.1,29.90,NW,304,0.0,2.0,95,0.00,,SKC,0.00,VWS V14.01,2013-08-06 09:00:00,
2013-08-06 05:05:00,75.5,74.0,29.90,NW,304,0.0,1.0,95,0.00,,SKC,0.00,VWS V14.01,2013-08-06 09:05:00,
2013-08-06 05:10:00,75.5,74.0,29.90,NW,304,0.0,0.0,95,0.00,,SKC,0.00,VWS V14.01,2013-08-06 09:10:00,
2013-08-06 05:15:00,75.4,73.9,29.90,NW,304,0.0,0.0,95,0.00,,SKC,0.00,VWS V14.01,2013-08-06 09:15:00,
2013-08-06 05:20:00,75.2,73.7,29.90,NW,304,0.0,0.0,95,0.00,,SKC,0.00,VWS V14.01,2013-08-06 09:20:00,
2013-08-06 05:25:00,75.1,73.6,29.90,NW,304,0.0,0.0,95,0.00,,SKC,0.00,VWS V14.01,2013-08-06 09:25:00,
2013-08-06 05:30:00,75.1,73.6,29.90,NW,304,0.0,1.0,95,0.00,,SKC,0.00,VWS V14.01,2013-08-06 09:30:00,
2013-08-06 05:35:00,75.1,73.6,29.90,NW,304,0.0,0.0,95,0.00,,SKC,0.00,VWS V14.01,2013-08-06 09:35:00,
2013-08-06 05:40:00,75.1,73.6,29.90,NW,304,0.0,0.0,95,0.00,,SKC,0.00,VWS V14.01,2013-08-06 09:40:00,
2013-08-06 05:45:00,75.1,73.6,29.90,NW,304,0.0,0.0,95,0.00,,SKC,0.00,VWS V14.01,2013-08-06 09:45:00,
2013-08-06 05:50:00,75.1,73.6,29.90,NW,304,0.0,0.0,95,0.00,,SKC,0.00,VWS V14.01,2013-08-06 09:50:00,
2013-08-06 05:55:00,75.2,73.7,29.90,NW,304,0.0,0.0,95,0.00,,SKC,0.00,VWS V14.01,2013-08-06 09:55:00,
2013-08-06 06:00:00,75.3,73.8,29.90,NW,304,0.0,0.0,95,0.00,,SKC,0.00,VWS V14.01,2013-08-06 10:00:00,
2013-08-06 06:05:00,75.5,74.0,29.90,NW,304,0.0,0.0,95,0.00,,SKC,0.00,VWS V14.01,2013-08-06 10:05:00,
2013-08-06 06:10:00,75.5,74.0,29.90,NW,304,1.0,1.0,95,0.00,,SKC,0.00,VWS V14.01,2013-08-06 10:10:00,
2013-08-06 06:15:00,75.3,73.5,29.91,NW,304,0.0,0.0,94,0.00,,SKC,0.00,VWS V14.01,2013-08-06 10:15:00,
2013-08-06 06:20:00,75.2,73.4,29.91,NW,304,1.0,1.0,94,0.00,,SKC,0.00,VWS V14.01,2013-08-06 10:20:00,
2013-08-06 06:25:00,75.0,73.2,29.91,NW,304,2.0,2.0,94,0.00,,SKC,0.00,VWS V14.01,2013-08-06 10:25:00,
2013-08-06 06:30:00,74.9,73.4,29.91,NW,304,0.0,0.0,95,0.00,,SKC,0.00,VWS V14.01,2013-08-06 10:30:00,
2013-08-06 06:35:00,75.3,73.8,29.91,NW,304,1.0,1.0,95,0.00,,SKC,0.00,VWS V14.01,2013-08-06 10:35:00,
2013-08-06 06:40:00,75.6,73.8,29.91,NW,304,0.0,0.0,94,0.00,,SKC,0.00,VWS V14.01,2013-08-06 10:40:00,
2013-08-06 06:45:00,75.8,74.3,29.91,NW,304,1.0,2.0,95,0.00,,SKC,0.00,VWS V14.01,2013-08-06 10:45:00,
2013-08-06 06:50:00,75.9,74.1,29.91,NW,304,1.0,1.0,94,0.00,,SKC,0.00,VWS V14.01,2013-08-06 10:50:00,
2013-08-06 06:55:00,75.7,73.8,29.91,NW,304,3.0,3.0,94,0.00,,SKC,0.00,VWS V14.01,2013-08-06 10:55:00,
2013-08-06 07:00:00,75.7,73.8,29.92,NW,323,1.0,2.0,94,0.00,,SKC,0.00,VWS V14.01,2013-08-06 11:00:00,
2013-08-06 07:05:00,75.9,74.1,29.92,NW,323,2.0,3.0,94,0.00,,SKC,0.00,VWS V14.01,2013-08-06 11:05:00,
2013-08-06 07:10:00,76.2,74.3,29.92,NE,38,2.0,3.0,94,0.00,,SKC,0.00,VWS V14.01,2013-08-06 11:10:00,
2013-08-06 07:15:00,76.4,74.9,29.92,NE,38,2.0,3.0,95,0.00,,SKC,0.00,VWS V14.01,2013-08-06 11:15:00,
2013-08-06 07:20:00,76.5,75.0,29.93,ENE,59,4.0,4.0,95,0.00,,SKC,0.00,VWS V14.01,2013-08-06 11:20:00,
2013-08-06 07:25:00,76.4,74.9,29.93,ENE,78,4.0,4.0,95,0.00,,SKC,0.00,VWS V14.01,2013-08-06 11:25:00,
2013-08-06 07:30:00,76.2,74.3,29.93,East,87,2.0,2.0,94,0.00,,SKC,0.00,VWS V14.01,2013-08-06 11:30:00,
2013-08-06 07:35:00,76.2,74.3,29.93,East,83,3.0,5.0,94,0.00,,SKC,0.00,VWS V14.01,2013-08-06 11:35:00,
2013-08-06 07:40:00,76.2,74.7,29.93,East,86,1.0,3.0,95,0.00,,SKC,0.00,VWS V14.01,2013-08-06 11:40:00,
2013-08-06 07:45:00,76.2,74.7,29.93,East,98,2.0,2.0,95,0.00,,SKC,0.00,VWS V14.01,2013-08-06 11:45:00,
2013-08-06 07:50:00,76.1,74.6,29.94,ESE,113,2.0,2.0,95,0.00,,SKC,0.00,VWS V14.01,2013-08-06 11:50:00,
2013-08-06 07:55:00,76.1,74.6,29.93,ESE,109,1.0,2.0,95,0.00,,SKC,0.00,VWS V14.01,2013-08-06 11:55:00,
2013-08-06 08:00:00,76.4,74.9,29.93,ESE,110,2.0,3.0,95,0.00,,SKC,0.00,VWS V14.01,2013-08-06 12:00:00,
2013-08-06 08:05:00,76.4,74.9,29.93,ESE,111,1.0,1.0,95,0.00,,SKC,0.00,VWS V14.01,2013-08-06 12:05:00,
2013-08-06 08:10:00,76.6,75.1,29.93,ESE,111,2.0,3.0,95,0.00,,SKC,0.00,VWS V14.01,2013-08-06 12:10:00,
2013-08-06 08:15:00,76.7,75.2,29.93,ESE,111,1.0,1.0,95,0.00,,SKC,0.00,VWS V14.01,2013-08-06 12:15:00,
2013-08-06 08:20:00,76.9,75.4,29.93,ESE,111,3.0,3.0,95,0.00,,SKC,0.00,VWS V14.01,2013-08-06 12:20:00,
2013-08-06 08:25:00,77.0,75.1,29.94,ESE,116,2.0,3.0,94,0.01,,SKC,0.01,VWS V14.01,2013-08-06 12:25:00,
2013-08-06 08:30:00,77.1,75.2,29.94,ESE,116,3.0,4.0,94,0.01,,SKC,0.01,VWS V14.01,2013-08-06 12:30:00,
2013-08-06 08:35:00,77.2,75.3,29.94,ESE,113,3.0,3.0,94,0.01,,SKC,0.01,VWS V14.01,2013-08-06 12:35:00,
2013-08-06 08:40:00,77.4,75.5,29.94,East,97,2.0,3.0,94,0.01,,SKC,0.01,VWS V14.01,2013-08-06 12:40:00,
2013-08-06 08:45:00,77.6,75.4,29.94,East,99,3.0,5.0,93,0.01,,SKC,0.01,VWS V14.01,2013-08-06 12:45:00,
2013-08-06 08:50:00,77.9,75.7,29.94,East,99,2.0,3.0,93,0.01,,SKC,0.01,VWS V14.01,2013-08-06 12:50:00,
2013-08-06 08:55:00,78.2,75.7,29.94,East,99,2.0,5.0,92,0.01,,SKC,0.01,VWS V14.01,2013-08-06 12:55:00,
2013-08-06 09:00:00,78.4,75.6,29.94,East,99,2.0,3.0,91,0.01,,SKC,0.01,VWS V14.01,2013-08-06 13:00:00,
2013-08-06 09:05:00,78.7,75.9,29.95,East,95,1.0,1.0,91,0.01,,SKC,0.01,VWS V14.01,2013-08-06 13:05:00,
2013-08-06 09:10:00,79.1,75.9,29.95,East,95,0.0,0.0,90,0.01,,SKC,0.01,VWS V14.01,2013-08-06 13:10:00,
2013-08-06 09:15:00,79.5,76.3,29.94,East,95,3.0,3.0,90,0.01,,SKC,0.01,VWS V14.01,2013-08-06 13:15:00,
2013-08-06 09:20:00,79.8,76.3,29.94,East,95,1.0,1.0,89,0.01,,SKC,0.01,VWS V14.01,2013-08-06 13:20:00,
2013-08-06 09:25:00,80.2,76.3,29.94,East,95,1.0,2.0,88,0.00,,SKC,0.01,VWS V14.01,2013-08-06 13:25:00,
2013-08-06 09:30:00,80.8,76.6,29.95,East,95,2.0,2.0,87,0.00,,SKC,0.01,VWS V14.01,2013-08-06 13:30:00,
2013-08-06 09:35:00,81.4,76.8,29.95,East,95,0.0,0.0,86,0.00,,SKC,0.01,VWS V14.01,2013-08-06 13:35:00,
2013-08-06 09:40:00,82.0,76.7,29.95,East,95,0.0,1.0,84,0.00,,SKC,0.01,VWS V14.01,2013-08-06 13:40:00,
2013-08-06 09:45:00,82.5,76.4,29.95,East,94,3.0,3.0,82,0.00,,SKC,0.01,VWS V14.01,2013-08-06 13:45:00,
2013-08-06 09:50:00,82.4,76.4,29.95,East,89,1.0,2.0,82,0.00,,SKC,0.01,VWS V14.01,2013-08-06 13:50:00,
2013-08-06 09:55:00,82.3,76.6,29.95,East,80,0.0,0.0,83,0.00,,SKC,0.01,VWS V14.01,2013-08-06 13:55:00,
2013-08-06 10:00:00,82.3,76.3,29.95,East,80,2.0,3.0,82,0.00,,SKC,0.01,VWS V14.01,2013-08-06 14:00:00,
2013-08-06 10:05:00,82.4,76.4,29.95,ENE,74,0.0,1.0,82,0.00,,SKC,0.01,VWS V14.01,2013-08-06 14:05:00,
2013-08-06 10:10:00,83.0,76.6,29.95,ENE,74,0.0,1.0,81,0.00,,SKC,0.01,VWS V14.01,2013-08-06 14:10:00,
2013-08-06 10:15:00,83.5,76.7,29.96,ENE,74,0.0,0.0,80,0.00,,SKC,0.01,VWS V14.01,2013-08-06 14:15:00,
2013-08-06 10:20:00,83.7,76.5,29.96,NE,35,4.0,4.0,79,0.00,,SKC,0.01,VWS V14.01,2013-08-06 14:20:00,
2013-08-06 10:26:00,83.4,76.6,29.96,NE,36,4.0,5.0,80,0.00,,SKC,0.01,VWS V14.01,2013-08-06 14:26:00,
2013-08-06 10:31:00,83.4,76.2,29.96,NE,36,1.0,1.0,79,0.00,,SKC,0.01,VWS V14.01,2013-08-06 14:31:00,
2013-08-06 10:36:00,83.9,77.1,29.96,NE,36,1.0,2.0,80,0.00,,SKC,0.01,VWS V14.01,2013-08-06 14:36:00,
2013-08-06 10:41:00,84.1,76.5,29.96,NE,48,1.0,1.0,78,0.00,,SKC,0.01,VWS V14.01,2013-08-06 14:41:00,
2013-08-06 10:46:00,84.1,76.5,29.96,NE,49,0.0,1.0,78,0.00,,SKC,0.01,VWS V14.01,2013-08-06 14:46:00,
2013-08-06 10:51:00,84.2,77.0,29.96,NE,37,4.0,4.0,79,0.00,,SKC,0.01,VWS V14.01,2013-08-06 14:51:00,
2013-08-06 10:56:00,84.5,76.9,29.96,NE,37,4.0,4.0,78,0.00,,SKC,0.01,VWS V14.01,2013-08-06 14:56:00,
2013-08-06 11:01:00,84.6,77.0,29.97,NE,37,1.0,2.0,78,0.00,,SKC,0.01,VWS V14.01,2013-08-06 15:01:00,
2013-08-06 11:06:00,84.6,77.4,29.97,NE,37,4.0,5.0,79,0.00,,SKC,0.01,VWS V14.01,2013-08-06 15:06:00,
2013-08-06 11:11:00,84.6,77.0,29.97,NE,50,2.0,2.0,78,0.00,,SKC,0.01,VWS V14.01,2013-08-06 15:11:00,
2013-08-06 11:16:00,84.9,76.9,29.97,ENE,67,2.0,5.0,77,0.00,,SKC,0.01,VWS V14.01,2013-08-06 15:16:00,
2013-08-06 11:21:00,85.2,77.2,29.96,East,101,5.0,5.0,77,0.00,,SKC,0.01,VWS V14.01,2013-08-06 15:21:00,
2013-08-06 11:26:00,85.7,77.7,29.96,East,95,1.0,2.0,77,0.00,,SKC,0.01,VWS V14.01,2013-08-06 15:26:00,
2013-08-06 11:31:00,86.3,77.8,29.96,ENE,61,1.0,5.0,76,0.00,,SKC,0.01,VWS V14.01,2013-08-06 15:31:00,
2013-08-06 11:36:00,86.5,78.0,29.96,NE,49,0.0,2.0,76,0.00,,SKC,0.01,VWS V14.01,2013-08-06 15:36:00,
2013-08-06 11:41:00,86.7,78.2,29.96,NE,37,1.0,1.0,76,0.00,,SKC,0.01,VWS V14.01,2013-08-06 15:41:00,
2013-08-06 11:46:00,87.1,78.2,29.96,NE,37,1.0,1.0,75,0.00,,SKC,0.01,VWS V14.01,2013-08-06 15:46:00,
2013-08-06 11:51:00,87.2,77.9,29.96,NE,42,1.0,1.0,74,0.00,,SKC,0.01,VWS V14.01,2013-08-06 15:51:00,
2013-08-06 11:56:00,87.4,78.1,29.95,NE,37,2.0,2.0,74,0.00,,SKC,0.01,VWS V14.01,2013-08-06 15:56:00,
2013-08-06 12:01:00,87.2,77.9,29.95,NE,37,0.0,0.0,74,0.00,,SKC,0.01,VWS V14.01,2013-08-06 16:01:00,
2013-08-06 12:06:00,87.1,77.8,29.95,NE,37,1.0,2.0,74,0.00,,SKC,0.01,VWS V14.01,2013-08-06 16:06:00,
2013-08-06 12:11:00,87.2,77.9,29.95,ENE,62,4.0,5.0,74,0.00,,SKC,0.01,VWS V14.01,2013-08-06 16:11:00,
2013-08-06 12:16:00,87.0,77.3,29.95,ENE,59,2.0,2.0,73,0.00,,SKC,0.01,VWS V14.01,2013-08-06 16:16:00,
2013-08-06 12:21:00,87.2,77.5,29.95,ENE,78,3.0,3.0,73,0.00,,SKC,0.01,VWS V14.01,2013-08-06 16:21:00,
2013-08-06 12:26:00,87.3,77.2,29.95,East,92,1.0,2.0,72,0.00,,SKC,0.01,VWS V14.01,2013-08-06 16:26:00,
2013-08-06 12:31:00,87.5,76.9,29.95,ENE,59,5.0,5.0,71,0.00,,SKC,0.01,VWS V14.01,2013-08-06 16:31:00,
2013-08-06 12:36:00,87.6,77.0,29.95,ESE,119,2.0,2.0,71,0.00,,SKC,0.01,VWS V14.01,2013-08-06 16:36:00,
2013-08-06 12:41:00,87.9,76.9,29.94,WSW,248,1.0,4.0,70,0.00,,SKC,0.01,VWS V14.01,2013-08-06 16:41:00,
2013-08-06 12:46:00,88.0,77.0,29.94,WSW,248,0.0,4.0,70,0.00,,SKC,0.01,VWS V14.01,2013-08-06 16:46:00,
2013-08-06 12:51:00,88.5,77.5,29.94,East,94,1.0,2.0,70,0.00,,SKC,0.01,VWS V14.01,2013-08-06 16:51:00,
2013-08-06 12:56:00,88.8,77.8,29.94,South,191,3.0,4.0,70,0.00,,SKC,0.01,VWS V14.01,2013-08-06 16:56:00,
2013-08-06 13:01:00,88.9,77.8,29.94,South,180,2.0,4.0,70,0.00,,SKC,0.01,VWS V14.01,2013-08-06 17:01:00,
2013-08-06 13:06:00,88.7,77.2,29.94,South,178,3.0,4.0,69,0.00,,SKC,0.01,VWS V14.01,2013-08-06 17:06:00,
2013-08-06 13:11:00,88.5,77.5,29.94,SE,128,4.0,5.0,70,0.00,,SKC,0.01,VWS V14.01,2013-08-06 17:11:00,
2013-08-06 13:16:00,88.4,76.9,29.94,ESE,123,0.0,1.0,69,0.00,,SKC,0.01,VWS V14.01,2013-08-06 17:16:00,
2013-08-06 13:21:00,88.7,77.2,29.93,ESE,123,0.0,1.0,69,0.00,,SKC,0.01,VWS V14.01,2013-08-06 17:21:00,
2013-08-06 13:26:00,89.3,77.4,29.93,SE,136,3.0,4.0,68,0.00,,SKC,0.01,VWS V14.01,2013-08-06 17:26:00,
2013-08-06 13:31:00,89.4,76.1,29.93,SE,125,2.0,2.0,65,0.00,,SKC,0.01,VWS V14.01,2013-08-06 17:31:00,
2013-08-06 13:36:00,89.4,76.6,29.93,SSE,166,0.0,1.0,66,0.00,,SKC,0.01,VWS V14.01,2013-08-06 17:36:00,
2013-08-06 13:41:00,89.7,76.8,29.93,South,169,1.0,2.0,66,0.00,,SKC,0.01,VWS V14.01,2013-08-06 17:41:00,
2013-08-06 13:46:00,90.4,77.0,29.93,South,169,0.0,1.0,65,0.00,,SKC,0.01,VWS V14.01,2013-08-06 17:46:00,
2013-08-06 13:47:00,90.6,77.2,29.93,ENE,59,1.0,4.0,65,0.00,,SKC,0.01,VWS V14.01,2013-08-06 17:47:00,
2013-08-06 13:52:00,91.0,77.1,29.93,East,82,2.0,5.0,64,0.00,,SKC,0.01,VWS V14.01,2013-08-06 17:52:00,
2013-08-06 13:57:00,90.8,77.4,29.93,East,92,1.0,2.0,65,0.00,,SKC,0.01,VWS V14.01,2013-08-06 17:57:00,
2013-08-06 14:02:00,90.7,76.8,29.93,East,92,1.0,2.0,64,0.00,,SKC,0.01,VWS V14.01,2013-08-06 18:02:00,
2013-08-06 14:07:00,90.6,76.8,29.92,East,92,3.0,5.0,64,0.00,,SKC,0.01,VWS V14.01,2013-08-06 18:07:00,
2013-08-06 14:12:00,90.0,77.1,29.92,NW,325,3.0,3.0,66,0.00,,SKC,0.01,VWS V14.01,2013-08-06 18:12:00,
2013-08-06 14:17:00,89.8,77.4,29.92,North,10,2.0,4.0,67,0.00,,SKC,0.01,VWS V14.01,2013-08-06 18:17:00,
2013-08-06 14:22:00,89.6,77.2,29.92,North,10,0.0,1.0,67,0.00,,SKC,0.01,VWS V14.01,2013-08-06 18:22:00,
2013-08-06 14:27:00,89.8,76.9,29.91,ESE,107,7.0,7.0,66,0.00,,SKC,0.01,VWS V14.01,2013-08-06 18:27:00,
2013-08-06 14:32:00,89.9,76.6,29.91,East,93,0.0,2.0,65,0.00,,SKC,0.01,VWS V14.01,2013-08-06 18:32:00,
2013-08-06 14:37:00,89.9,76.1,29.91,SE,144,2.0,4.0,64,0.00,,SKC,0.01,VWS V14.01,2013-08-06 18:37:00,
2013-08-06 14:42:00,89.8,76.5,29.91,ESE,113,1.0,1.0,65,0.00,,SKC,0.01,VWS V14.01,2013-08-06 18:42:00,
2013-08-06 14:47:00,90.1,76.3,29.91,NE,51,6.0,7.0,64,0.00,,SKC,0.01,VWS V14.01,2013-08-06 18:47:00,
2013-08-06 14:52:00,90.0,76.2,29.91,East,80,6.0,6.0,64,0.00,,SKC,0.01,VWS V14.01,2013-08-06 18:52:00,
2013-08-06 14:57:00,89.9,76.1,29.91,ENE,69,2.0,3.0,64,0.00,,SKC,0.01,VWS V14.01,2013-08-06 18:57:00,
2013-08-06 15:02:00,90.1,76.8,29.90,NE,34,4.0,4.0,65,0.00,,SKC,0.01,VWS V14.01,2013-08-06 19:02:00,
2013-08-06 15:07:00,89.9,76.1,29.90,East,80,1.0,6.0,64,0.00,,SKC,0.01,VWS V14.01,2013-08-06 19:07:00,
2013-08-06 15:12:00,89.9,76.1,29.90,ENE,67,5.0,7.0,64,0.00,,SKC,0.01,VWS V14.01,2013-08-06 19:12:00,
2013-08-06 15:17:00,90.5,76.2,29.90,SE,145,1.0,5.0,63,0.00,,SKC,0.01,VWS V14.01,2013-08-06 19:17:00,
2013-08-06 15:22:00,91.0,76.2,29.90,ESE,115,1.0,4.0,62,0.00,,SKC,0.01,VWS V14.01,2013-08-06 19:22:00,
2013-08-06 15:27:00,90.9,76.6,29.90,ENE,77,4.0,7.0,63,0.00,,SKC,0.01,VWS V14.01,2013-08-06 19:27:00,
2013-08-06 15:32:00,90.2,76.4,29.90,East,96,6.0,9.0,64,0.00,,SKC,0.01,VWS V14.01,2013-08-06 19:32:00,
2013-08-06 15:37:00,90.0,76.7,29.90,ESE,103,3.0,9.0,65,0.00,,SKC,0.01,VWS V14.01,2013-08-06 19:37:00,
2013-08-06 15:42:00,89.7,75.9,29.90,SE,146,4.0,6.0,64,0.00,,SKC,0.01,VWS V14.01,2013-08-06 19:42:00,
2013-08-06 15:47:00,89.8,76.5,29.89,SE,130,5.0,7.0,65,0.00,,SKC,0.01,VWS V14.01,2013-08-06 19:47:00,
2013-08-06 15:52:00,89.7,76.4,29.89,East,84,0.0,3.0,65,0.00,,SKC,0.01,VWS V14.01,2013-08-06 19:52:00,
2013-08-06 15:57:00,89.9,76.6,29.89,South,172,1.0,4.0,65,0.00,,SKC,0.01,VWS V14.01,2013-08-06 19:57:00,
2013-08-06 16:02:00,90.2,76.4,29.89,ESE,118,2.0,4.0,64,0.00,,SKC,0.01,VWS V14.01,2013-08-06 20:02:00,
2013-08-06 16:07:00,90.6,76.3,29.89,ESE,109,5.0,5.0,63,0.00,,SKC,0.01,VWS V14.01,2013-08-06 20:07:00,
2013-08-06 16:12:00,90.6,77.2,29.89,SSE,150,4.0,5.0,65,0.00,,SKC,0.01,VWS V14.01,2013-08-06 20:12:00,
2013-08-06 16:17:00,90.9,77.0,29.89,SSE,155,2.0,7.0,64,0.00,,SKC,0.01,VWS V14.01,2013-08-06 20:17:00,
2013-08-06 16:22:00,91.0,76.7,29.89,SE,141,5.0,8.0,63,0.00,,SKC,0.01,VWS V14.01,2013-08-06 20:22:00,
2013-08-06 16:27:00,90.8,76.5,29.89,ENE,69,0.0,3.0,63,0.00,,SKC,0.01,VWS V14.01,2013-08-06 20:27:00,
2013-08-06 16:32:00,90.8,76.9,29.89,ESE,103,4.0,6.0,64,0.00,,SKC,0.01,VWS V14.01,2013-08-06 20:32:00,
2013-08-06 16:37:00,90.9,77.0,29.88,ESE,115,2.0,8.0,64,0.00,,SKC,0.01,VWS V14.01,2013-08-06 20:37:00,
2013-08-06 16:40:00,90.8,76.9,29.88,ESE,108,2.0,8.0,64,0.00,,SKC,0.01,VWS V14.01,2013-08-06 20:40:00,
2013-08-06 16:45:00,90.5,76.2,29.89,ENE,69,4.0,8.0,63,0.00,,SKC,0.01,VWS V14.01,2013-08-06 20:45:00,
2013-08-06 16:50:00,90.4,75.6,29.89,ENE,62,2.0,6.0,62,0.00,,SKC,0.01,VWS V14.01,2013-08-06 20:50:00,
2013-08-06 16:55:00,90.7,75.9,29.89,ENE,61,3.0,3.0,62,0.00,,SKC,0.01,VWS V14.01,2013-08-06 20:55:00,
2013-08-06 17:00:00,91.0,76.2,29.89,ENE,76,4.0,7.0,62,0.00,,SKC,0.01,VWS V14.01,2013-08-06 21:00:00,
2013-08-06 17:05:00,91.1,76.3,29.88,East,98,3.0,8.0,62,0.00,,SKC,0.01,VWS V14.01,2013-08-06 21:05:00,
2013-08-06 17:10:00,91.1,76.3,29.89,ENE,73,5.0,9.0,62,0.00,,SKC,0.01,VWS V14.01,2013-08-06 21:10:00,
2013-08-06 17:15:00,90.8,75.5,29.89,ESE,102,4.0,8.0,61,0.00,,SKC,0.01,VWS V14.01,2013-08-06 21:15:00,
2013-08-06 17:20:00,91.0,75.7,29.88,East,101,7.0,9.0,61,0.00,,SKC,0.01,VWS V14.01,2013-08-06 21:20:00,
2013-08-06 17:25:00,90.7,75.4,29.88,East,84,6.0,8.0,61,0.00,,SKC,0.01,VWS V14.01,2013-08-06 21:25:00,
2013-08-06 17:30:00,90.5,75.7,29.88,East,90,6.0,8.0,62,0.00,,SKC,0.01,VWS V14.01,2013-08-06 21:30:00,
2013-08-06 17:35:00,90.3,74.5,29.88,East,90,3.0,7.0,60,0.00,,SKC,0.01,VWS V14.01,2013-08-06 21:35:00,
2013-08-06 17:40:00,90.2,74.4,29.89,East,89,2.0,5.0,60,0.00,,SKC,0.01,VWS V14.01,2013-08-06 21:40:00,
2013-08-06 17:45:00,90.3,75.0,29.88,East,89,2.0,3.0,61,0.00,,SKC,0.01,VWS V14.01,2013-08-06 21:45:00,
2013-08-06 17:50:00,90.2,74.9,29.88,East,88,5.0,5.0,61,0.00,,SKC,0.01,VWS V14.01,2013-08-06 21:50:00,
2013-08-06 17:55:00,90.1,74.3,29.88,East,92,2.0,2.0,60,0.00,,SKC,0.01,VWS V14.01,2013-08-06 21:55:00,
2013-08-06 18:00:00,90.2,74.9,29.88,East,93,2.0,2.0,61,0.00,,SKC,0.01,VWS V14.01,2013-08-06 22:00:00,
2013-08-06 18:05:00,90.5,75.2,29.88,East,100,5.0,5.0,61,0.00,,SKC,0.01,VWS V14.01,2013-08-06 22:05:00,
2013-08-06 18:10:00,90.6,74.8,29.88,ENE,78,4.0,4.0,60,0.00,,SKC,0.01,VWS V14.01,2013-08-06 22:10:00,
2013-08-06 18:15:00,90.6,74.3,29.88,East,93,6.0,6.0,59,0.00,,SKC,0.01,VWS V14.01,2013-08-06 22:15:00,
2013-08-06 18:20:00,90.6,74.3,29.88,East,94,5.0,6.0,59,0.00,,SKC,0.01,VWS V14.01,2013-08-06 22:20:00,
2013-08-06 18:25:00,90.5,74.7,29.88,ENE,75,1.0,2.0,60,0.00,,SKC,0.01,VWS V14.01,2013-08-06 22:25:00,
2013-08-06 18:30:00,90.5,74.7,29.89,ENE,74,4.0,4.0,60,0.00,,SKC,0.01,VWS V14.01,2013-08-06 22:30:00,
2013-08-06 18:35:00,90.4,74.6,29.89,ENE,67,3.0,3.0,60,0.00,,SKC,0.01,VWS V14.01,2013-08-06 22:35:00,
2013-08-06 18:40:00,90.2,74.4,29.89,ENE,67,1.0,1.0,60,0.00,,SKC,0.01,VWS V14.01,2013-08-06 22:40:00,
2013-08-06 18:45:00,90.1,74.8,29.89,ENE,67,3.0,3.0,61,0.00,,SKC,0.01,VWS V14.01,2013-08-06 22:45:00,
2013-08-06 18:50:00,89.0,76.6,29.90,NE,38,8.0,8.0,67,0.00,,SKC,0.01,VWS V14.01,2013-08-06 22:50:00,
2013-08-06 18:55:00,87.4,76.8,29.90,NNE,30,11.0,11.0,71,0.00,,SKC,0.01,VWS V14.01,2013-08-06 22:55:00,
2013-08-06 19:00:00,86.5,76.8,29.90,NNE,23,6.0,6.0,73,0.00,,SKC,0.01,VWS V14.01,2013-08-06 23:00:00,
2013-08-06 19:05:00,86.0,76.8,29.91,NNE,12,4.0,4.0,74,0.00,,SKC,0.01,VWS V14.01,2013-08-06 23:05:00,
2013-08-06 19:10:00,84.7,76.7,29.91,NNE,17,5.0,10.0,77,0.01,,SKC,0.02,VWS V14.01,2013-08-06 23:10:00,
2013-08-06 19:15:00,82.5,76.4,29.91,WNW,292,9.0,14.0,82,0.02,,SKC,0.03,VWS V14.01,2013-08-06 23:15:00,
2013-08-06 19:20:00,81.6,76.3,29.92,West,275,7.0,7.0,84,0.02,,SKC,0.03,VWS V14.01,2013-08-06 23:20:00,
2013-08-06 19:25:00,81.2,76.3,29.92,West,271,9.0,10.0,85,0.02,,SKC,0.03,VWS V14.01,2013-08-06 23:25:00,
2013-08-06 19:30:00,80.8,75.9,29.92,WSW,240,13.0,17.0,85,0.02,,SKC,0.03,VWS V14.01,2013-08-06 23:30:00,
2013-08-06 19:35:00,80.7,75.8,29.92,WNW,295,6.0,13.0,85,0.02,,SKC,0.03,VWS V14.01,2013-08-06 23:35:00,
2013-08-06 19:40:00,80.7,75.8,29.92,WNW,293,5.0,9.0,85,0.02,,SKC,0.03,VWS V14.01,2013-08-06 23:40:00,
2013-08-06 19:45:00,79.4,74.2,29.92,WSW,244,7.0,13.0,84,0.02,,SKC,0.03,VWS V14.01,2013-08-06 23:45:00,
2013-08-06 19:50:00,79.3,74.1,29.92,West,259,7.0,12.0,84,0.02,,SKC,0.03,VWS V14.01,2013-08-06 23:50:00,
2013-08-06 19:55:00,79.3,74.1,29.92,WSW,258,5.0,7.0,84,0.02,,SKC,0.03,VWS V14.01,2013-08-06 23:55:00,
2013-08-06 20:00:00,79.4,74.2,29.92,WSW,254,2.0,9.0,84,0.02,,SKC,0.03,VWS V14.01,2013-08-07 00:00:00,
2013-08-06 20:05:00,79.6,74.3,29.92,WSW,254,2.0,3.0,84,0.02,,SKC,0.03,VWS V14.01,2013-08-07 00:05:00,
2013-08-06 20:10:00,79.8,74.5,29.92,WNW,284,4.0,5.0,84,0.02,,SKC,0.03,VWS V14.01,2013-08-07 00:10:00,
2013-08-06 20:15:00,79.7,74.4,29.93,WSW,255,2.0,5.0,84,0.01,,SKC,0.03,VWS V14.01,2013-08-07 00:15:00,
2013-08-06 20:20:00,79.8,74.9,29.93,WSW,255,0.0,5.0,85,0.00,,SKC,0.03,VWS V14.01,2013-08-07 00:20:00,
2013-08-06 20:25:00,79.8,74.9,29.93,WSW,255,2.0,3.0,85,0.00,,SKC,0.03,VWS V14.01,2013-08-07 00:25:00,
2013-08-06 20:30:00,79.9,75.3,29.93,WSW,257,0.0,4.0,86,0.00,,SKC,0.03,VWS V14.01,2013-08-07 00:30:00,
2013-08-06 20:35:00,80.1,75.5,29.92,WSW,257,1.0,3.0,86,0.00,,SKC,0.03,VWS V14.01,2013-08-07 00:35:00,
2013-08-06 20:40:00,80.2,75.6,29.93,SW,225,5.0,6.0,86,0.00,,SKC,0.03,VWS V14.01,2013-08-07 00:40:00,
2013-08-06 20:45:00,79.6,74.7,29.93,SW,220,5.0,7.0,85,0.00,,SKC,0.03,VWS V14.01,2013-08-07 00:45:00,
2013-08-06 20:50:00,79.1,73.8,29.93,SW,234,4.0,8.0,84,0.00,,SKC,0.03,VWS V14.01,2013-08-07 00:50:00,
2013-08-06 20:55:00,79.0,74.1,29.93,SW,235,2.0,4.0,85,0.00,,SKC,0.03,VWS V14.01,2013-08-07 00:55:00,
2013-08-06 21:00:00,78.8,73.9,29.93,SW,222,3.0,6.0,85,0.00,,SKC,0.03,VWS V14.01,2013-08-07 01:00:00,
2013-08-06 21:05:00,78.7,74.2,29.93,SW,234,3.0,6.0,86,0.00,,SKC,0.03,VWS V14.01,2013-08-07 01:05:00,
2013-08-06 21:10:00,78.7,74.2,29.93,SW,234,0.0,3.0,86,0.00,,SKC,0.03,VWS V14.01,2013-08-07 01:10:00,
2013-08-06 21:15:00,78.8,74.3,29.94,SW,234,0.0,1.0,86,0.00,,SKC,0.03,VWS V14.01,2013-08-07 01:15:00,
2013-08-06 21:20:00,78.9,74.4,29.94,SW,234,0.0,1.0,86,0.00,,SKC,0.03,VWS V14.01,2013-08-07 01:20:00,
2013-08-06 21:25:00,78.9,74.4,29.94,SW,234,0.0,0.0,86,0.00,,SKC,0.03,VWS V14.01,2013-08-07 01:25:00,
2013-08-06 21:30:00,79.1,74.6,29.94,SW,234,0.0,0.0,86,0.00,,SKC,0.03,VWS V14.01,2013-08-07 01:30:00,
2013-08-06 21:35:00,79.4,74.8,29.94,SW,220,4.0,6.0,86,0.00,,SKC,0.03,VWS V14.01,2013-08-07 01:35:00,
2013-08-06 21:40:00,79.5,74.9,29.94,SW,220,2.0,5.0,86,0.00,,SKC,0.03,VWS V14.01,2013-08-07 01:40:00,
2013-08-06 21:45:00,79.3,74.8,29.94,SW,220,2.0,4.0,86,0.00,,SKC,0.03,VWS V14.01,2013-08-07 01:45:00,
2013-08-06 21:50:00,79.1,74.6,29.94,SW,220,0.0,2.0,86,0.00,,SKC,0.03,VWS V14.01,2013-08-07 01:50:00,
2013-08-06 21:55:00,79.1,74.6,29.94,SW,220,0.0,0.0,86,0.00,,SKC,0.03,VWS V14.01,2013-08-07 01:55:00,
2013-08-06 22:00:00,79.0,74.5,29.95,SW,220,0.0,0.0,86,0.00,,SKC,0.03,VWS V14.01,2013-08-07 02:00:00,
2013-08-06 22:05:00,79.0,74.5,29.95,SW,220,0.0,0.0,86,0.00,,SKC,0.03,VWS V14.01,2013-08-07 02:05:00,
2013-08-06 22:10:00,79.1,74.6,29.94,SW,220,0.0,1.0,86,0.00,,SKC,0.03,VWS V14.01,2013-08-07 02:10:00,
2013-08-06 22:15:00,79.3,74.8,29.94,SW,220,0.0,1.0,86,0.00,,SKC,0.03,VWS V14.01,2013-08-07 02:15:00,
2013-08-06 22:20:00,79.3,74.8,29.94,SW,220,0.0,1.0,86,0.00,,SKC,0.03,VWS V14.01,2013-08-07 02:20:00,
2013-08-06 22:25:00,79.4,74.8,29.94,SW,220,0.0,1.0,86,0.00,,SKC,0.03,VWS V14.01,2013-08-07 02:25:00,
2013-08-06 22:30:00,79.5,74.9,29.94,SW,220,0.0,2.0,86,0.00,,SKC,0.03,VWS V14.01,2013-08-07 02:30:00,
2013-08-06 22:35:00,79.5,75.3,29.94,SW,221,0.0,0.0,87,0.00,,SKC,0.03,VWS V14.01,2013-08-07 02:35:00,
2013-08-06 22:40:00,79.5,75.3,29.94,SW,221,0.0,2.0,87,0.00,,SKC,0.03,VWS V14.01,2013-08-07 02:40:00,
2013-08-06 22:45:00,79.5,75.3,29.94,SW,221,1.0,2.0,87,0.00,,SKC,0.03,VWS V14.01,2013-08-07 02:45:00,
2013-08-06 22:50:00,79.6,75.4,29.94,SW,221,1.0,3.0,87,0.00,,SKC,0.03,VWS V14.01,2013-08-07 02:50:00,
2013-08-06 22:55:00,79.6,75.4,29.95,SW,221,2.0,4.0,87,0.00,,SKC,0.03,VWS V14.01,2013-08-07 02:55:00,
2013-08-06 23:00:00,79.7,75.5,29.95,SW,221,0.0,2.0,87,0.00,,SKC,0.03,VWS V14.01,2013-08-07 03:00:00,
2013-08-06 23:05:00,79.8,75.6,29.95,North,11,1.0,1.0,87,0.00,,SKC,0.03,VWS V14.01,2013-08-07 03:05:00,
2013-08-06 23:10:00,79.8,75.9,29.95,NNE,13,3.0,3.0,88,0.00,,SKC,0.03,VWS V14.01,2013-08-07 03:10:00,
2013-08-06 23:15:00,79.7,75.8,29.95,NNE,32,3.0,5.0,88,0.00,,SKC,0.03,VWS V14.01,2013-08-07 03:15:00,
2013-08-06 23:20:00,79.7,75.8,29.95,NE,38,1.0,5.0,88,0.00,,SKC,0.03,VWS V14.01,2013-08-07 03:20:00,
2013-08-06 23:25:00,79.7,75.8,29.95,NE,43,3.0,4.0,88,0.00,,SKC,0.03,VWS V14.01,2013-08-07 03:25:00,
2013-08-06 23:30:00,79.5,75.6,29.94,NE,42,2.0,4.0,88,0.00,,SKC,0.03,VWS V14.01,2013-08-07 03:30:00,
2013-08-06 23:35:00,79.4,75.9,29.94,NE,35,2.0,5.0,89,0.00,,SKC,0.03,VWS V14.01,2013-08-07 03:35:00,
2013-08-06 23:40:00,79.2,75.7,29.94,NE,48,1.0,5.0,89,0.00,,SKC,0.03,VWS V14.01,2013-08-07 03:40:00,
2013-08-06 23:45:00,79.2,75.7,29.94,NE,52,3.0,6.0,89,0.00,,SKC,0.03,VWS V14.01,2013-08-07 03:45:00,
2013-08-06 23:50:00,79.3,75.8,29.94,ENE,63,4.0,8.0,89,0.00,,SKC,0.03,VWS V14.01,2013-08-07 03:50:00,
2013-08-06 23:55:00,79.3,75.8,29.94,NE,53,3.0,6.0,89,0.00,,SKC,0.03,VWS V14.01,2013-08-07 03:55:00,